createdAt,value
2022-10-17T00:02:11.407Z,8.80
2022-10-17T00:04:13.458Z,12.52
2022-10-17T00:06:16.147Z,11.80
2022-10-17T00:08:19.529Z,10.13
2022-10-17T00:10:23.103Z,7.85
2022-10-17T00:12:25.239Z,10.02
2022-10-17T00:14:27.371Z,6.55
2022-10-17T00:16:33.710Z,8.20
2022-10-17T00:18:35.733Z,9.80
2022-10-17T00:20:38.016Z,15.25
2022-10-17T00:22:40.159Z,7.43
2022-10-17T00:24:42.288Z,8.77
2022-10-17T00:26:44.342Z,9.00
2022-10-17T00:28:48.261Z,8.65
2022-10-17T00:31:05.615Z,10.63
2022-10-17T00:33:08.039Z,8.88
2022-10-17T00:35:10.805Z,6.40
2022-10-17T00:37:13.041Z,7.75
2022-10-17T00:39:16.016Z,8.70
2022-10-17T00:41:20.019Z,10.48
2022-10-17T00:43:22.187Z,11.70
2022-10-17T00:45:27.884Z,9.02
2022-10-17T00:47:31.021Z,11.57
2022-10-17T00:49:36.128Z,9.32
2022-10-17T00:51:45.408Z,7.13
2022-10-17T00:53:47.578Z,8.00
2022-10-17T00:55:52.893Z,8.35
2022-10-17T00:57:56.625Z,7.90
2022-10-17T01:00:00.901Z,8.68
2022-10-17T01:02:11.705Z,7.63
2022-10-17T01:04:13.744Z,7.75
2022-10-17T01:06:16.036Z,8.68
2022-10-17T01:08:18.375Z,11.23
2022-10-17T01:12:35.454Z,12.75
2022-10-17T01:15:03.026Z,12.13
2022-10-17T01:17:15.192Z,12.38
2022-10-17T01:19:35.953Z,7.97
2022-10-17T01:22:01.586Z,9.95
2022-10-17T01:24:37.319Z,8.65
2022-10-17T01:27:01.088Z,11.27
2022-10-17T01:29:33.424Z,12.07
2022-10-17T01:31:47.924Z,8.82
2022-10-17T01:33:59.126Z,9.18
2022-10-17T01:36:13.000Z,10.07
2022-10-17T01:38:24.048Z,8.18
2022-10-17T01:40:30.308Z,8.57
2022-10-17T01:42:42.741Z,10.35
2022-10-17T01:44:56.202Z,7.60
2022-10-17T01:47:05.670Z,9.85
2022-10-17T01:49:10.653Z,8.70
2022-10-17T01:51:22.525Z,12.57
2022-10-17T01:53:30.370Z,8.93
2022-10-17T01:55:36.479Z,10.75
2022-10-17T01:57:44.043Z,6.22
2022-10-17T01:59:49.891Z,11.48
2022-10-17T02:01:55.693Z,10.20
2022-10-17T02:04:00.312Z,9.10
2022-10-17T02:06:03.513Z,7.95
2022-10-17T02:08:07.263Z,7.70
2022-10-17T02:10:32.372Z,10.40
2022-10-17T02:12:54.248Z,11.75
2022-10-17T02:15:15.234Z,7.72
2022-10-17T02:17:38.435Z,6.90
2022-10-17T02:19:46.347Z,9.95
2022-10-17T02:21:57.615Z,7.38
2022-10-17T02:24:15.542Z,7.25
2022-10-17T02:26:25.039Z,7.80
2022-10-17T02:28:47.402Z,10.23
2022-10-17T02:31:13.877Z,10.25
2022-10-17T02:33:59.907Z,11.50
2022-10-17T02:36:10.256Z,9.43
2022-10-17T02:38:13.531Z,8.00
2022-10-17T02:40:21.211Z,7.63
2022-10-17T02:42:26.341Z,9.23
2022-10-17T02:44:30.848Z,8.43
2022-10-17T02:46:34.643Z,10.13
2022-10-17T02:48:42.637Z,10.18
2022-10-17T02:51:12.945Z,11.60
2022-10-17T02:53:25.369Z,9.73
2022-10-17T02:55:33.550Z,10.35
2022-10-17T02:57:47.614Z,6.97
2022-10-17T02:59:51.264Z,12.07
2022-10-17T03:01:53.819Z,8.63
2022-10-17T03:04:10.112Z,11.02
2022-10-17T03:06:12.206Z,11.32
2022-10-17T03:08:14.515Z,12.27
2022-10-17T03:12:18.709Z,8.83
2022-10-17T03:14:21.235Z,10.25
2022-10-17T03:16:23.235Z,8.68
2022-10-17T03:18:25.482Z,12.25
2022-10-17T03:20:32.940Z,8.48
2022-10-17T03:22:35.062Z,10.77
2022-10-17T03:24:39.059Z,10.82
2022-10-17T03:26:41.106Z,9.60
2022-10-17T03:28:43.282Z,11.63
2022-10-17T03:32:47.624Z,10.63
2022-10-17T03:34:49.791Z,7.72
2022-10-17T03:36:52.586Z,14.48
2022-10-17T03:40:58.495Z,8.70
2022-10-17T03:43:01.410Z,9.98
2022-10-17T03:45:05.297Z,9.40
2022-10-17T03:47:09.327Z,9.85
2022-10-17T03:49:14.783Z,13.88
2022-10-17T03:51:17.564Z,9.30
2022-10-17T03:53:24.987Z,9.98
2022-10-17T03:55:27.133Z,10.93
2022-10-17T03:57:29.327Z,11.93
2022-10-17T04:01:39.034Z,16.15
2022-10-17T04:03:43.526Z,10.13
2022-10-17T04:05:45.637Z,9.60
2022-10-17T04:07:47.901Z,12.30
2022-10-17T04:09:51.984Z,8.20
2022-10-17T04:11:55.884Z,10.70
2022-10-17T04:14:02.280Z,10.40
2022-10-17T04:16:09.015Z,10.20
2022-10-17T04:18:15.774Z,9.65
2022-10-17T04:20:17.892Z,9.90
2022-10-17T04:22:20.024Z,9.60
2022-10-17T04:26:40.619Z,11.25
2022-10-17T04:28:42.844Z,11.32
2022-10-17T04:30:45.620Z,10.98
2022-10-17T04:32:51.595Z,18.60
2022-10-17T04:34:56.549Z,12.25
2022-10-17T04:36:59.111Z,11.57
2022-10-17T04:39:03.730Z,8.65
2022-10-17T04:41:10.474Z,9.10
2022-10-17T04:43:12.602Z,13.63
2022-10-17T04:45:14.895Z,11.75
2022-10-17T04:47:17.653Z,11.98
2022-10-17T04:49:19.923Z,9.10
2022-10-17T04:51:26.613Z,9.57
2022-10-17T04:53:58.406Z,14.68
2022-10-17T04:56:01.373Z,9.68
2022-10-17T04:58:04.248Z,12.13
2022-10-17T05:02:36.771Z,9.98
2022-10-17T05:04:39.412Z,15.25
2022-10-17T05:06:42.364Z,12.70
2022-10-17T05:09:12.032Z,11.93
2022-10-17T05:11:32.596Z,7.63
2022-10-17T05:13:34.656Z,12.73
2022-10-17T05:15:37.630Z,9.95
2022-10-17T05:17:39.657Z,17.00
2022-10-17T05:19:42.320Z,13.15
2022-10-17T05:21:44.787Z,15.13
2022-10-17T05:23:47.014Z,9.90
2022-10-17T05:25:54.986Z,6.75
2022-10-17T05:27:59.226Z,8.70
2022-10-17T05:30:01.878Z,6.85
2022-10-17T05:32:08.517Z,8.75
2022-10-17T05:36:16.521Z,9.05
2022-10-17T05:38:18.949Z,9.55
2022-10-17T05:40:22.608Z,10.43
2022-10-17T05:42:27.847Z,9.85
2022-10-17T05:44:31.379Z,9.75
2022-10-17T05:46:35.353Z,15.98
2022-10-17T05:48:37.455Z,13.38
2022-10-17T05:50:40.120Z,9.15
2022-10-17T05:52:47.351Z,8.73
2022-10-17T05:54:51.444Z,7.55
2022-10-17T05:56:55.403Z,13.65
2022-10-17T05:59:01.618Z,10.20
2022-10-17T06:01:33.102Z,9.02
2022-10-17T06:03:35.433Z,11.35
2022-10-17T06:05:40.491Z,12.68
2022-10-17T06:07:42.725Z,9.50
2022-10-17T06:13:50.501Z,7.18
2022-10-17T06:15:58.136Z,8.52
2022-10-17T06:18:00.299Z,7.63
2022-10-17T06:20:02.584Z,11.23
2022-10-17T06:22:05.031Z,12.32
2022-10-17T06:24:09.737Z,9.52
2022-10-17T06:26:14.907Z,10.70
2022-10-17T06:30:19.617Z,8.03
2022-10-17T06:34:23.801Z,19.23
2022-10-17T06:36:26.019Z,17.33
2022-10-17T06:38:28.344Z,16.70
2022-10-17T06:40:32.777Z,9.35
2022-10-17T06:45:00.282Z,8.27
2022-10-17T06:47:19.237Z,8.10
2022-10-17T06:49:23.176Z,11.85
2022-10-17T06:53:32.345Z,8.75
2022-10-17T06:56:03.253Z,9.65
2022-10-17T06:58:16.885Z,13.38
2022-10-17T07:00:39.256Z,14.00
2022-10-17T07:04:47.287Z,13.55
2022-10-17T07:06:49.816Z,9.10
2022-10-17T07:08:59.048Z,8.20
2022-10-17T07:11:12.119Z,13.93
2022-10-17T07:13:19.351Z,12.63
2022-10-17T07:16:11.467Z,12.57
2022-10-17T07:18:26.441Z,13.57
2022-10-17T07:20:29.050Z,15.65
2022-10-17T07:22:31.734Z,19.27
2022-10-17T07:24:34.444Z,12.55
2022-10-17T07:27:00.641Z,18.73
2022-10-17T07:31:20.212Z,11.75
2022-10-17T07:33:22.492Z,8.25
2022-10-17T07:35:25.442Z,15.85
2022-10-17T07:37:29.566Z,10.30
2022-10-17T07:39:32.306Z,18.70
2022-10-17T07:43:37.193Z,14.98
2022-10-17T07:45:44.747Z,15.93
2022-10-17T07:47:47.352Z,12.70
2022-10-17T07:49:58.473Z,12.30
2022-10-17T07:52:00.572Z,8.88
2022-10-17T07:54:04.847Z,6.32
2022-10-17T07:56:09.323Z,13.68
2022-10-17T07:58:15.527Z,8.70
2022-10-17T08:00:23.259Z,7.88
2022-10-17T08:02:28.157Z,13.68
2022-10-17T08:04:31.336Z,11.30
2022-10-17T08:06:36.493Z,6.63
2022-10-17T08:10:47.195Z,13.85
2022-10-17T08:12:51.806Z,15.43
2022-10-17T08:14:54.517Z,11.30
2022-10-17T08:16:59.836Z,9.70
2022-10-17T08:19:02.530Z,12.60
2022-10-17T08:21:08.843Z,10.38
2022-10-17T08:23:11.219Z,11.10
2022-10-17T08:27:21.503Z,11.52
2022-10-17T08:29:23.609Z,12.15
2022-10-17T08:31:25.853Z,13.18
2022-10-17T08:33:28.648Z,15.25
2022-10-17T08:37:33.203Z,12.83
2022-10-17T08:39:35.859Z,16.45
2022-10-17T08:42:02.753Z,12.48
2022-10-17T08:44:25.977Z,13.73
2022-10-17T08:46:39.135Z,10.55
2022-10-17T08:48:47.764Z,13.88
2022-10-17T08:51:04.924Z,20.02
2022-10-17T08:53:16.075Z,17.08
2022-10-17T08:55:33.088Z,15.65
2022-10-17T08:57:35.454Z,15.20
2022-10-17T08:59:38.363Z,13.95
2022-10-17T09:01:50.344Z,15.65
2022-10-17T09:04:12.172Z,13.18
2022-10-17T09:06:37.130Z,12.48
2022-10-17T09:08:54.320Z,10.93
2022-10-17T09:11:03.788Z,21.25
2022-10-17T09:13:53.691Z,15.55
2022-10-17T09:16:13.906Z,16.95
2022-10-17T09:18:25.041Z,17.08
2022-10-17T09:21:00.418Z,15.65
2022-10-17T09:23:16.443Z,11.95
2022-10-17T09:25:21.899Z,14.57
2022-10-17T09:27:37.654Z,20.42
2022-10-17T09:29:43.706Z,15.43
2022-10-17T09:31:53.727Z,15.07
2022-10-17T09:33:57.945Z,11.77
2022-10-17T09:36:05.031Z,17.67
2022-10-17T09:38:13.878Z,13.00
2022-10-17T09:40:32.516Z,15.43
2022-10-17T09:42:36.923Z,17.25
2022-10-17T09:44:49.581Z,13.13
2022-10-17T09:46:55.227Z,17.67
2022-10-17T09:49:05.270Z,17.67
2022-10-17T09:51:25.030Z,13.93
2022-10-17T09:53:34.484Z,16.20
2022-10-17T09:55:48.478Z,12.57
2022-10-17T09:57:59.062Z,15.95
2022-10-17T10:00:05.730Z,17.95
2022-10-17T10:02:22.187Z,16.35
2022-10-17T10:04:30.203Z,16.33
2022-10-17T10:06:37.935Z,13.88
2022-10-17T10:08:55.089Z,16.10
2022-10-17T10:11:05.869Z,13.52
2022-10-17T10:13:20.755Z,17.88
2022-10-17T10:15:39.038Z,14.82
2022-10-17T10:17:43.058Z,13.10
2022-10-17T10:19:51.243Z,12.95
2022-10-17T10:22:01.760Z,19.30
2022-10-17T10:24:13.401Z,12.63
2022-10-17T10:26:32.732Z,16.15
2022-10-17T10:28:37.468Z,17.08
2022-10-17T10:30:42.514Z,17.60
2022-10-17T10:32:50.919Z,15.40
2022-10-17T10:34:55.166Z,16.92
2022-10-17T10:37:23.101Z,19.58
2022-10-17T10:39:47.961Z,12.30
2022-10-17T10:41:50.167Z,14.93
2022-10-17T10:43:54.855Z,14.30
2022-10-17T10:45:57.175Z,13.52
2022-10-17T10:50:20.910Z,13.57
2022-10-17T10:52:42.715Z,14.50
2022-10-17T10:54:54.024Z,14.83
2022-10-17T10:57:03.707Z,16.02
2022-10-17T10:59:08.891Z,15.38
2022-10-17T11:01:29.390Z,20.38
2022-10-17T11:03:46.388Z,14.85
2022-10-17T11:05:55.163Z,14.90
2022-10-17T11:08:30.222Z,14.30
2022-10-17T11:10:44.578Z,12.57
2022-10-17T11:12:55.152Z,14.23
2022-10-17T11:15:09.671Z,19.45
2022-10-17T11:17:23.488Z,16.45
2022-10-17T11:19:37.042Z,13.40
2022-10-17T11:22:26.585Z,13.68
2022-10-17T11:24:48.048Z,17.75
2022-10-17T11:26:56.929Z,14.73
2022-10-17T11:29:06.911Z,15.27
2022-10-17T11:33:28.655Z,15.45
2022-10-17T11:35:46.217Z,15.27
2022-10-17T11:38:25.515Z,27.95
2022-10-17T11:40:32.147Z,15.25
2022-10-17T11:42:45.870Z,20.20
2022-10-17T11:44:52.739Z,16.95
2022-10-17T11:47:02.590Z,17.55
2022-10-17T11:49:38.244Z,16.95
2022-10-17T11:52:04.373Z,16.88
2022-10-17T11:54:18.692Z,18.25
2022-10-17T11:56:32.135Z,16.02
2022-10-17T11:58:47.116Z,17.00
2022-10-17T12:00:55.407Z,18.85
2022-10-17T12:03:23.452Z,18.38
2022-10-17T12:05:34.599Z,19.40
2022-10-17T12:07:47.360Z,20.35
2022-10-17T12:10:04.971Z,19.63
2022-10-17T12:12:07.399Z,22.63
2022-10-17T12:14:41.638Z,17.45
2022-10-17T12:16:45.931Z,20.13
2022-10-17T12:19:10.756Z,23.10
2022-10-17T12:21:13.047Z,18.83
2022-10-17T12:25:34.675Z,21.02
2022-10-17T12:27:50.375Z,19.38
2022-10-17T12:30:06.400Z,20.20
2022-10-17T12:32:16.988Z,22.00
2022-10-17T12:34:22.575Z,16.42
2022-10-17T12:36:30.576Z,20.00
2022-10-17T12:38:33.539Z,23.70
2022-10-17T12:40:35.606Z,15.48
2022-10-17T12:42:47.933Z,22.23
2022-10-17T12:44:51.195Z,25.42
2022-10-17T12:47:37.953Z,20.63
2022-10-17T12:49:53.110Z,20.90
2022-10-17T12:52:27.967Z,19.27
2022-10-17T12:54:46.979Z,19.85
2022-10-17T12:56:57.982Z,20.73
2022-10-17T12:59:18.162Z,22.63
2022-10-17T13:01:33.894Z,19.63
2022-10-17T13:03:44.729Z,20.98
2022-10-17T13:05:54.954Z,22.80
2022-10-17T13:08:00.115Z,25.85
2022-10-17T13:10:05.332Z,25.20
2022-10-17T13:12:15.027Z,20.92
2022-10-17T13:14:20.640Z,24.85
2022-10-17T13:16:34.870Z,21.30
2022-10-17T13:18:37.135Z,19.45
2022-10-17T13:20:41.806Z,22.70
2022-10-17T13:22:48.837Z,18.83
2022-10-17T13:24:52.658Z,18.35
2022-10-17T13:26:55.629Z,20.63
2022-10-17T13:29:18.086Z,21.90
2022-10-17T13:31:35.849Z,22.52
2022-10-17T13:33:40.204Z,27.48
2022-10-17T13:35:59.820Z,25.60
2022-10-17T13:38:07.760Z,25.33
2022-10-17T13:42:49.089Z,19.63
2022-10-17T13:44:52.230Z,25.52
2022-10-17T13:47:00.049Z,25.35
2022-10-17T13:49:23.233Z,22.42
2022-10-17T13:51:34.522Z,29.05
2022-10-17T13:53:44.547Z,23.60
2022-10-17T13:56:34.461Z,22.20
2022-10-17T13:58:43.039Z,25.55
2022-10-17T14:00:46.035Z,22.70
2022-10-17T14:02:48.583Z,24.60
2022-10-17T14:08:09.250Z,19.38
2022-10-17T14:10:17.486Z,19.88
2022-10-17T14:12:25.493Z,20.50
2022-10-17T14:14:32.129Z,24.45
2022-10-17T14:16:46.961Z,21.63
2022-10-17T14:18:50.921Z,20.88
2022-10-17T14:23:37.224Z,27.52
2022-10-17T14:25:42.389Z,23.00
2022-10-17T14:28:02.392Z,28.40
2022-10-17T14:30:51.606Z,29.05
2022-10-17T14:32:48.075Z,23.35
2022-10-17T14:35:05.629Z,24.17
2022-10-17T14:37:43.982Z,28.02
2022-10-17T14:39:50.730Z,24.25
2022-10-17T14:41:53.761Z,24.65
2022-10-17T14:44:00.314Z,26.90
2022-10-17T14:46:03.425Z,25.10
2022-10-17T14:48:17.603Z,22.75
2022-10-17T14:50:28.421Z,24.73
2022-10-17T14:52:32.654Z,27.52
2022-10-17T14:54:36.171Z,28.00
2022-10-17T14:56:50.798Z,24.73
2022-10-17T14:58:53.226Z,25.80
2022-10-17T15:00:59.119Z,30.05
2022-10-17T15:03:01.402Z,25.42
2022-10-17T15:05:08.360Z,25.90
2022-10-17T15:07:16.714Z,24.65
2022-10-17T15:09:19.170Z,25.35
2022-10-17T15:13:28.302Z,26.43
2022-10-17T15:15:32.617Z,27.23
2022-10-17T15:17:35.399Z,25.90
2022-10-17T15:19:37.905Z,28.00
2022-10-17T15:21:47.540Z,28.77
2022-10-17T15:23:53.214Z,31.23
2022-10-17T15:25:55.899Z,27.48
2022-10-17T15:30:00.673Z,29.85
2022-10-17T15:34:05.374Z,29.35
2022-10-17T15:38:28.840Z,28.33
2022-10-17T15:40:31.218Z,40.33
2022-10-17T15:44:36.844Z,31.27
2022-10-17T15:46:41.256Z,23.10
2022-10-17T15:48:46.077Z,29.52
2022-10-17T15:50:48.417Z,20.65
2022-10-17T15:52:51.241Z,21.77
2022-10-17T15:54:54.568Z,28.15
2022-10-17T15:56:59.804Z,21.33
2022-10-17T15:59:25.712Z,27.20
2022-10-17T16:01:31.273Z,21.55
2022-10-17T16:03:34.286Z,23.23
2022-10-17T16:05:36.623Z,21.80
2022-10-17T16:07:38.846Z,24.73
2022-10-17T16:09:41.542Z,25.40
2022-10-17T16:11:44.813Z,25.45
2022-10-17T16:13:53.853Z,24.73
2022-10-17T16:15:59.099Z,24.13
2022-10-17T16:18:04.242Z,21.75
2022-10-17T16:20:13.718Z,21.30
2022-10-17T16:22:33.574Z,28.10
2022-10-17T16:24:37.042Z,25.23
2022-10-17T16:26:43.010Z,23.10
2022-10-17T16:28:46.516Z,19.90
2022-10-17T16:30:49.485Z,26.50
2022-10-17T16:32:52.449Z,19.35
2022-10-17T16:34:58.398Z,21.52
2022-10-17T16:37:00.769Z,24.40
2022-10-17T16:41:05.890Z,20.10
2022-10-17T16:43:12.614Z,23.40
2022-10-17T16:45:25.560Z,17.13
2022-10-17T16:47:33.764Z,22.15
2022-10-17T16:49:39.267Z,23.80
2022-10-17T16:51:47.966Z,21.10
2022-10-17T16:53:53.094Z,25.02
2022-10-17T16:56:03.390Z,20.98
2022-10-17T16:58:05.750Z,23.92
2022-10-17T17:00:08.579Z,24.60
2022-10-17T17:02:12.169Z,21.58
2022-10-17T17:04:15.466Z,25.63
2022-10-17T17:06:26.774Z,25.00
2022-10-17T17:08:29.134Z,21.70
2022-10-17T17:12:36.103Z,23.60
2022-10-17T17:14:38.859Z,23.27
2022-10-17T17:16:43.774Z,21.92
2022-10-17T17:20:49.033Z,20.05
2022-10-17T17:22:52.537Z,21.25
2022-10-17T17:24:54.660Z,23.80
2022-10-17T17:26:57.593Z,22.52
2022-10-17T17:29:02.734Z,23.15
2022-10-17T17:31:12.346Z,17.73
2022-10-17T17:33:15.239Z,19.80
2022-10-17T17:35:19.358Z,25.10
2022-10-17T17:37:21.513Z,21.67
2022-10-17T17:39:24.730Z,19.52
2022-10-17T17:41:31.025Z,25.75
2022-10-17T17:43:33.745Z,18.83
2022-10-17T17:45:36.391Z,29.15
2022-10-17T17:47:38.550Z,22.92
2022-10-17T17:49:40.743Z,20.70
2022-10-17T17:51:48.249Z,20.50
2022-10-17T17:53:53.476Z,21.98
2022-10-17T17:56:07.952Z,19.65
2022-10-17T17:58:12.593Z,22.52
2022-10-17T18:00:15.420Z,21.40
2022-10-17T18:02:18.814Z,24.10
2022-10-17T18:04:21.566Z,19.67
2022-10-17T18:06:27.419Z,19.42
2022-10-17T18:08:32.898Z,22.65
2022-10-17T18:10:35.889Z,23.30
2022-10-17T18:12:38.364Z,23.05
2022-10-17T18:14:50.008Z,24.13
2022-10-17T18:16:52.276Z,26.65
2022-10-17T18:18:54.578Z,25.42
2022-10-17T18:23:01.982Z,22.90
2022-10-17T18:25:07.077Z,24.83
2022-10-17T18:27:09.666Z,23.23
2022-10-17T18:29:12.964Z,25.05
2022-10-17T18:31:24.388Z,25.85
2022-10-17T18:33:26.712Z,23.80
2022-10-17T18:35:31.637Z,24.25
2022-10-17T18:37:33.889Z,24.52
2022-10-17T18:39:36.212Z,23.08
2022-10-17T18:41:38.310Z,24.15
2022-10-17T18:43:42.179Z,29.80
2022-10-17T18:45:44.460Z,23.75
2022-10-17T18:47:47.518Z,23.42
2022-10-17T18:49:49.747Z,25.15
2022-10-17T18:51:52.177Z,22.67
2022-10-17T18:53:58.852Z,24.27
2022-10-17T18:56:03.453Z,18.42
2022-10-17T18:58:05.699Z,22.75
2022-10-17T19:00:08.566Z,25.67
2022-10-17T19:02:13.301Z,23.75
2022-10-17T19:04:15.879Z,22.77
2022-10-17T19:06:21.834Z,25.40
2022-10-17T19:08:26.901Z,22.10
2022-10-17T19:10:29.211Z,28.75
2022-10-17T19:12:31.883Z,22.17
2022-10-17T19:14:40.014Z,25.55
2022-10-17T19:16:45.730Z,22.65
2022-10-17T19:18:52.489Z,25.52
2022-10-17T19:20:54.869Z,41.08
2022-10-17T19:22:59.754Z,25.33
2022-10-17T19:25:01.920Z,28.38
2022-10-17T19:27:06.988Z,24.70
2022-10-17T19:29:12.685Z,21.75
2022-10-17T19:31:20.800Z,28.15
2022-10-17T19:33:31.556Z,26.23
2022-10-17T19:35:34.974Z,28.35
2022-10-17T19:37:37.893Z,31.90
2022-10-17T19:39:40.604Z,24.70
2022-10-17T19:41:44.973Z,30.33
2022-10-17T19:43:49.993Z,29.90
2022-10-17T19:45:57.832Z,31.23
2022-10-17T19:48:01.557Z,24.67
2022-10-17T19:50:04.824Z,32.10
2022-10-17T19:52:07.291Z,33.28
2022-10-17T19:54:10.087Z,26.52
2022-10-17T19:56:18.643Z,29.05
2022-10-17T19:58:20.857Z,30.25
2022-10-17T20:00:23.161Z,27.27
2022-10-17T20:04:27.717Z,33.75
2022-10-17T20:08:32.234Z,31.85
2022-10-17T20:14:41.105Z,31.43
2022-10-17T20:16:50.279Z,35.28
2022-10-17T20:18:54.859Z,27.38
2022-10-17T20:21:06.596Z,30.33
2022-10-17T20:23:08.706Z,29.50
2022-10-17T20:25:11.017Z,38.13
2022-10-17T20:27:17.228Z,33.20
2022-10-17T20:29:23.322Z,31.75
2022-10-17T20:31:25.908Z,39.65
2022-10-17T20:33:31.833Z,32.90
2022-10-17T20:35:34.304Z,36.38
2022-10-17T20:37:41.705Z,35.58
2022-10-17T20:39:51.812Z,31.83
2022-10-17T20:41:58.101Z,34.45
2022-10-17T20:44:00.301Z,37.75
2022-10-17T20:46:15.540Z,34.00
2022-10-17T20:48:25.064Z,35.35
2022-10-17T20:50:27.121Z,31.80
2022-10-17T20:52:29.204Z,35.17
2022-10-17T20:54:31.566Z,28.17
2022-10-17T20:56:34.932Z,29.33
2022-10-17T20:58:37.435Z,27.50
2022-10-17T21:02:42.337Z,28.33
2022-10-17T21:04:47.044Z,27.60
2022-10-17T21:06:51.469Z,25.88
2022-10-17T21:08:55.252Z,25.15
2022-10-17T21:11:08.588Z,31.02
2022-10-17T21:13:10.802Z,27.88
2022-10-17T21:15:19.071Z,28.00
2022-10-17T21:17:21.765Z,23.15
2022-10-17T21:19:23.938Z,31.02
2022-10-17T21:21:34.807Z,28.00
2022-10-17T21:23:37.532Z,27.52
2022-10-17T21:25:40.794Z,24.83
2022-10-17T21:27:45.959Z,28.92
2022-10-17T21:29:48.946Z,33.05
2022-10-17T21:31:51.886Z,28.63
2022-10-17T21:33:56.900Z,27.92
2022-10-17T21:35:59.030Z,27.60
2022-10-17T21:38:01.117Z,32.28
2022-10-17T21:44:13.667Z,34.80
2022-10-17T21:46:18.189Z,33.25
2022-10-17T21:48:20.343Z,32.17
2022-10-17T21:50:22.493Z,34.75
2022-10-17T21:52:24.633Z,29.60
2022-10-17T21:54:26.806Z,39.75
2022-10-17T21:56:30.822Z,32.28
2022-10-17T21:58:35.942Z,34.40
2022-10-17T22:00:38.066Z,30.23
2022-10-17T22:02:40.195Z,37.28
2022-10-17T22:04:42.213Z,31.02
2022-10-17T22:06:46.387Z,27.75
2022-10-17T22:08:48.994Z,32.63
2022-10-17T22:10:51.124Z,28.70
2022-10-17T22:12:53.247Z,30.45
2022-10-17T22:14:55.358Z,31.50
2022-10-17T22:16:57.529Z,29.17
2022-10-17T22:19:04.934Z,31.45
2022-10-17T22:21:11.772Z,31.50
2022-10-17T22:23:14.011Z,29.45
2022-10-17T22:25:16.279Z,30.98
2022-10-17T22:27:18.404Z,30.23
2022-10-17T22:29:21.267Z,31.67
2022-10-17T22:31:23.817Z,28.73
2022-10-17T22:33:26.093Z,29.42
2022-10-17T22:37:30.605Z,31.98
2022-10-17T22:39:32.877Z,32.33
2022-10-17T22:41:34.957Z,31.70
2022-10-17T22:43:37.082Z,35.60
2022-10-17T22:45:40.293Z,33.78
2022-10-17T22:47:42.628Z,39.15
2022-10-17T22:51:47.229Z,31.50
2022-10-17T22:53:49.748Z,42.90
2022-10-17T22:55:58.898Z,32.72
2022-10-17T22:58:01.037Z,32.38
2022-10-17T23:00:04.969Z,34.17
2022-10-17T23:02:07.290Z,27.00
2022-10-17T23:04:09.451Z,31.85
2022-10-17T23:06:12.330Z,31.65
2022-10-17T23:08:15.588Z,42.10
2022-10-17T23:10:18.191Z,31.48
2022-10-17T23:12:20.290Z,30.10
2022-10-17T23:14:22.415Z,27.67
2022-10-17T23:16:27.223Z,23.40
2022-10-17T23:20:32.023Z,27.05
2022-10-17T23:22:34.053Z,33.15
2022-10-17T23:24:36.871Z,28.98
2022-10-17T23:26:39.244Z,26.65
2022-10-17T23:28:42.692Z,30.17
2022-10-17T23:30:45.061Z,26.65
2022-10-17T23:32:47.469Z,29.23
2022-10-17T23:34:49.760Z,26.15
2022-10-17T23:36:54.719Z,29.40
2022-10-17T23:38:58.610Z,25.60
2022-10-17T23:41:03.814Z,31.58
2022-10-17T23:43:06.666Z,24.30
2022-10-17T23:45:09.633Z,30.88
2022-10-17T23:47:11.696Z,26.70
2022-10-17T23:49:13.844Z,26.77
2022-10-17T23:51:16.152Z,28.45
2022-10-17T23:55:20.289Z,29.33
2022-10-17T23:57:22.597Z,29.80
2022-10-17T23:59:25.051Z,25.17
